sensor_id;sensor_type;location;lat;lon;timestamp;pressure;altitude;pressure_sealevel;temperature;humidity
12799;BME280;19250;42.646;26.980;2023-03-25T00:02:17;98755.22;;;9.47;100.00
12799;BME280;19250;42.646;26.980;2023-03-25T00:04:44;98753.00;;;10.10;100.00
12799;BME280;19250;42.646;26.980;2023-03-25T00:07:15;98745.09;;;10.34;100.00
12799;BME280;19250;42.646;26.980;2023-03-25T00:09:42;98747.78;;;10.42;100.00
12799;BME280;19250;42.646;26.980;2023-03-25T00:12:09;98747.47;;;9.61;100.00
12799;BME280;19250;42.646;26.980;2023-03-25T00:14:36;98745.22;;;9.82;100.00
12799;BME280;19250;42.646;26.980;2023-03-25T00:17:05;98736.25;;;10.25;100.00
12799;BME280;19250;42.646;26.980;2023-03-25T00:19:32;98738.72;;;10.19;100.00
12799;BME280;19250;42.646;26.980;2023-03-25T00:21:59;98737.78;;;10.36;100.00
12799;BME280;19250;42.646;26.980;2023-03-25T00:24:27;98730.78;;;10.43;100.00
12799;BME280;19250;42.646;26.980;2023-03-25T00:26:54;98732.13;;;10.47;100.00
12799;BME280;19250;42.646;26.980;2023-03-25T00:29:20;98743.13;;;9.60;100.00
12799;BME280;19250;42.646;26.980;2023-03-25T00:31:47;98739.47;;;10.03;100.00
12799;BME280;19250;42.646;26.980;2023-03-25T00:34:16;98748.22;;;9.46;100.00
12799;BME280;19250;42.646;26.980;2023-03-25T00:36:44;98742.28;;;9.26;100.00
12799;BME280;19250;42.646;26.980;2023-03-25T00:39:11;98739.25;;;9.89;100.00
12799;BME280;19250;42.646;26.980;2023-03-25T00:41:38;98733.03;;;10.06;100.00
12799;BME280;19250;42.646;26.980;2023-03-25T00:44:06;98729.91;;;9.76;100.00
12799;BME280;19250;42.646;26.980;2023-03-25T00:46:33;98731.56;;;9.18;100.00
12799;BME280;19250;42.646;26.980;2023-03-25T00:49:00;98730.53;;;9.70;100.00
12799;BME280;19250;42.646;26.980;2023-03-25T00:51:28;98729.56;;;9.79;100.00
12799;BME280;19250;42.646;26.980;2023-03-25T00:53:58;98732.00;;;9.99;100.00
12799;BME280;19250;42.646;26.980;2023-03-25T00:56:25;98725.06;;;10.14;100.00
12799;BME280;19250;42.646;26.980;2023-03-25T00:58:52;98723.53;;;10.11;100.00
12799;BME280;19250;42.646;26.980;2023-03-25T01:01:20;98717.25;;;9.11;100.00
12799;BME280;19250;42.646;26.980;2023-03-25T01:03:51;98711.97;;;8.93;100.00
12799;BME280;19250;42.646;26.980;2023-03-25T01:06:24;98715.09;;;9.14;100.00
12799;BME280;19250;42.646;26.980;2023-03-25T01:08:56;98711.19;;;9.60;100.00
12799;BME280;19250;42.646;26.980;2023-03-25T01:11:23;98707.50;;;9.53;100.00
12799;BME280;19250;42.646;26.980;2023-03-25T01:13:52;98706.78;;;9.43;100.00
12799;BME280;19250;42.646;26.980;2023-03-25T01:16:19;98702.50;;;9.50;100.00
12799;BME280;19250;42.646;26.980;2023-03-25T01:18:46;98694.78;;;9.39;100.00
12799;BME280;19250;42.646;26.980;2023-03-25T01:21:13;98698.91;;;9.67;100.00
12799;BME280;19250;42.646;26.980;2023-03-25T01:23:39;98692.41;;;9.28;100.00
12799;BME280;19250;42.646;26.980;2023-03-25T01:26:08;98686.44;;;9.60;100.00
12799;BME280;19250;42.646;26.980;2023-03-25T01:28:35;98689.50;;;8.88;100.00
12799;BME280;19250;42.646;26.980;2023-03-25T01:31:02;98685.59;;;8.56;100.00
12799;BME280;19250;42.646;26.980;2023-03-25T01:33:29;98681.50;;;8.44;100.00
12799;BME280;19250;42.646;26.980;2023-03-25T01:35:56;98680.94;;;8.23;100.00
12799;BME280;19250;42.646;26.980;2023-03-25T01:38:23;98682.31;;;8.62;100.00
12799;BME280;19250;42.646;26.980;2023-03-25T01:40:51;98670.25;;;8.94;100.00
12799;BME280;19250;42.646;26.980;2023-03-25T01:43:20;98666.59;;;9.20;100.00
12799;BME280;19250;42.646;26.980;2023-03-25T01:45:47;98665.91;;;9.18;100.00
12799;BME280;19250;42.646;26.980;2023-03-25T01:48:16;98659.88;;;9.42;100.00
12799;BME280;19250;42.646;26.980;2023-03-25T01:50:45;98658.78;;;9.61;100.00
12799;BME280;19250;42.646;26.980;2023-03-25T01:53:13;98654.94;;;9.47;100.00
12799;BME280;19250;42.646;26.980;2023-03-25T01:55:41;98648.31;;;9.59;100.00
12799;BME280;19250;42.646;26.980;2023-03-25T01:58:09;98654.31;;;9.69;100.00
12799;BME280;19250;42.646;26.980;2023-03-25T02:00:39;98647.16;;;9.62;100.00
12799;BME280;19250;42.646;26.980;2023-03-25T02:03:08;98648.50;;;9.66;100.00
12799;BME280;19250;42.646;26.980;2023-03-25T02:05:37;98644.66;;;9.60;100.00
12799;BME280;19250;42.646;26.980;2023-03-25T02:08:05;98638.66;;;9.50;100.00
12799;BME280;19250;42.646;26.980;2023-03-25T02:10:34;98638.38;;;9.27;100.00
12799;BME280;19250;42.646;26.980;2023-03-25T02:13:02;98636.31;;;9.47;100.00
12799;BME280;19250;42.646;26.980;2023-03-25T02:15:31;98636.13;;;9.49;100.00
12799;BME280;19250;42.646;26.980;2023-03-25T02:18:21;98646.63;;;9.16;100.00
12799;BME280;19250;42.646;26.980;2023-03-25T02:21:03;98638.78;;;9.07;100.00
12799;BME280;19250;42.646;26.980;2023-03-25T02:26:47;98621.75;;;9.25;100.00
12799;BME280;19250;42.646;26.980;2023-03-25T02:29:22;98627.78;;;9.02;100.00
12799;BME280;19250;42.646;26.980;2023-03-25T02:31:55;98620.66;;;8.77;100.00
12799;BME280;19250;42.646;26.980;2023-03-25T02:34:38;98624.47;;;8.31;100.00
12799;BME280;19250;42.646;26.980;2023-03-25T02:37:14;98620.94;;;8.99;100.00
12799;BME280;19250;42.646;26.980;2023-03-25T02:39:46;98629.75;;;9.00;100.00
12799;BME280;19250;42.646;26.980;2023-03-25T02:42:18;98630.47;;;8.84;100.00
12799;BME280;19250;42.646;26.980;2023-03-25T02:44:46;98620.16;;;9.07;100.00
12799;BME280;19250;42.646;26.980;2023-03-25T02:47:18;98616.69;;;9.14;100.00
12799;BME280;19250;42.646;26.980;2023-03-25T02:49:47;98615.25;;;9.20;100.00
12799;BME280;19250;42.646;26.980;2023-03-25T02:52:16;98617.19;;;9.18;100.00
12799;BME280;19250;42.646;26.980;2023-03-25T02:54:47;98616.44;;;9.00;100.00
12799;BME280;19250;42.646;26.980;2023-03-25T02:57:17;98611.41;;;8.63;100.00
12799;BME280;19250;42.646;26.980;2023-03-25T02:59:45;98604.72;;;8.85;100.00
12799;BME280;19250;42.646;26.980;2023-03-25T03:02:13;98598.69;;;8.49;100.00
12799;BME280;19250;42.646;26.980;2023-03-25T03:04:45;98605.06;;;8.38;100.00
12799;BME280;19250;42.646;26.980;2023-03-25T03:07:14;98613.88;;;8.82;100.00
12799;BME280;19250;42.646;26.980;2023-03-25T03:09:44;98615.34;;;9.10;100.00
12799;BME280;19250;42.646;26.980;2023-03-25T03:12:18;98606.88;;;8.55;100.00
12799;BME280;19250;42.646;26.980;2023-03-25T03:14:55;98612.84;;;8.32;100.00
12799;BME280;19250;42.646;26.980;2023-03-25T03:17:26;98615.88;;;8.62;100.00
12799;BME280;19250;42.646;26.980;2023-03-25T03:19:58;98610.56;;;8.62;100.00
12799;BME280;19250;42.646;26.980;2023-03-25T03:22:32;98615.22;;;8.86;100.00
12799;BME280;19250;42.646;26.980;2023-03-25T03:25:03;98607.31;;;9.02;100.00
12799;BME280;19250;42.646;26.980;2023-03-25T03:27:35;98611.84;;;9.10;100.00
12799;BME280;19250;42.646;26.980;2023-03-25T03:30:05;98605.69;;;8.50;100.00
12799;BME280;19250;42.646;26.980;2023-03-25T03:32:36;98605.75;;;8.84;100.00
12799;BME280;19250;42.646;26.980;2023-03-25T03:35:08;98607.13;;;8.70;100.00
12799;BME280;19250;42.646;26.980;2023-03-25T03:37:38;98605.47;;;8.95;100.00
12799;BME280;19250;42.646;26.980;2023-03-25T03:40:08;98541.44;;;8.11;100.00
12799;BME280;19250;42.646;26.980;2023-03-25T03:42:38;98606.31;;;8.69;100.00
12799;BME280;19250;42.646;26.980;2023-03-25T03:45:07;98606.00;;;8.72;100.00
12799;BME280;19250;42.646;26.980;2023-03-25T03:47:36;98604.16;;;8.73;100.00
12799;BME280;19250;42.646;26.980;2023-03-25T03:50:06;98607.19;;;8.78;100.00
12799;BME280;19250;42.646;26.980;2023-03-25T03:52:35;98604.06;;;8.83;100.00
12799;BME280;19250;42.646;26.980;2023-03-25T03:55:03;98605.44;;;8.87;100.00
12799;BME280;19250;42.646;26.980;2023-03-25T03:57:35;98596.56;;;8.78;100.00
12799;BME280;19250;42.646;26.980;2023-03-25T04:00:06;98595.66;;;8.69;100.00
12799;BME280;19250;42.646;26.980;2023-03-25T04:02:36;98596.28;;;8.63;100.00
12799;BME280;19250;42.646;26.980;2023-03-25T04:05:05;98596.03;;;8.74;100.00
12799;BME280;19250;42.646;26.980;2023-03-25T04:07:33;98595.88;;;8.76;100.00
12799;BME280;19250;42.646;26.980;2023-03-25T04:10:04;98594.84;;;8.69;100.00
12799;BME280;19250;42.646;26.980;2023-03-25T04:12:39;98595.47;;;8.63;100.00
12799;BME280;19250;42.646;26.980;2023-03-25T04:18:23;98594.78;;;8.61;100.00
12799;BME280;19250;42.646;26.980;2023-03-25T04:20:50;98597.81;;;8.40;100.00
12799;BME280;19250;42.646;26.980;2023-03-25T04:23:16;98593.47;;;8.39;100.00
12799;BME280;19250;42.646;26.980;2023-03-25T04:25:44;98591.50;;;8.41;100.00
12799;BME280;19250;42.646;26.980;2023-03-25T04:28:12;98594.63;;;8.19;100.00
12799;BME280;19250;42.646;26.980;2023-03-25T04:30:42;98594.31;;;8.04;100.00
12799;BME280;19250;42.646;26.980;2023-03-25T04:33:09;98593.25;;;7.62;100.00
12799;BME280;19250;42.646;26.980;2023-03-25T04:35:37;98598.47;;;8.25;100.00
12799;BME280;19250;42.646;26.980;2023-03-25T04:38:04;98596.81;;;8.41;100.00
12799;BME280;19250;42.646;26.980;2023-03-25T04:40:31;98600.47;;;8.05;100.00
12799;BME280;19250;42.646;26.980;2023-03-25T04:42:58;98599.97;;;8.45;100.00
12799;BME280;19250;42.646;26.980;2023-03-25T04:45:25;98596.03;;;8.74;100.00
12799;BME280;19250;42.646;26.980;2023-03-25T04:47:52;98596.28;;;8.63;100.00
12799;BME280;19250;42.646;26.980;2023-03-25T04:50:21;98589.72;;;8.75;100.00
12799;BME280;19250;42.646;26.980;2023-03-25T04:52:50;98595.34;;;8.72;100.00
12799;BME280;19250;42.646;26.980;2023-03-25T04:55:18;98586.63;;;9.22;100.00
12799;BME280;19250;42.646;26.980;2023-03-25T04:57:45;98587.09;;;9.59;100.00
12799;BME280;19250;42.646;26.980;2023-03-25T05:00:13;98597.09;;;9.65;100.00
12799;BME280;19250;42.646;26.980;2023-03-25T05:02:41;98592.81;;;9.89;100.00
12799;BME280;19250;42.646;26.980;2023-03-25T05:05:10;98597.84;;;10.08;100.00
12799;BME280;19250;42.646;26.980;2023-03-25T05:07:43;98607.53;;;10.25;100.00
12799;BME280;19250;42.646;26.980;2023-03-25T05:10:12;98598.16;;;10.13;100.00
12799;BME280;19250;42.646;26.980;2023-03-25T05:12:39;98597.66;;;10.01;100.00
12799;BME280;19250;42.646;26.980;2023-03-25T05:15:06;98599.69;;;10.31;100.00
12799;BME280;19250;42.646;26.980;2023-03-25T05:17:33;98600.03;;;10.53;100.00
12799;BME280;19250;42.646;26.980;2023-03-25T05:20:00;98603.81;;;10.74;100.00
12799;BME280;19250;42.646;26.980;2023-03-25T05:22:28;98601.63;;;10.94;100.00
12799;BME280;19250;42.646;26.980;2023-03-25T05:24:55;98601.25;;;11.05;99.29
12799;BME280;19250;42.646;26.980;2023-03-25T05:27:23;98599.25;;;11.07;98.83
12799;BME280;19250;42.646;26.980;2023-03-25T05:29:50;98602.09;;;11.06;100.00
12799;BME280;19250;42.646;26.980;2023-03-25T05:32:18;98595.00;;;11.68;96.67
12799;BME280;19250;42.646;26.980;2023-03-25T05:34:46;98603.59;;;11.86;94.53
12799;BME280;19250;42.646;26.980;2023-03-25T05:37:12;98594.50;;;12.18;91.58
12799;BME280;19250;42.646;26.980;2023-03-25T05:39:39;98602.47;;;12.26;89.56
12799;BME280;19250;42.646;26.980;2023-03-25T05:42:06;98603.66;;;12.46;88.63
12799;BME280;19250;42.646;26.980;2023-03-25T05:44:36;98599.19;;;12.76;86.94
12799;BME280;19250;42.646;26.980;2023-03-25T05:47:15;98601.91;;;13.05;83.92
12799;BME280;19250;42.646;26.980;2023-03-25T05:49:42;98592.22;;;13.19;84.37
12799;BME280;19250;42.646;26.980;2023-03-25T05:52:09;98604.13;;;12.27;90.56
12799;BME280;19250;42.646;26.980;2023-03-25T05:54:36;98597.09;;;12.48;89.91
12799;BME280;19250;42.646;26.980;2023-03-25T05:57:06;98596.13;;;12.79;89.61
12799;BME280;19250;42.646;26.980;2023-03-25T05:59:33;98584.72;;;13.43;85.13
12799;BME280;19250;42.646;26.980;2023-03-25T06:02:04;98598.75;;;13.01;85.67
12799;BME280;19250;42.646;26.980;2023-03-25T06:04:33;98591.16;;;12.90;89.50
12799;BME280;19250;42.646;26.980;2023-03-25T06:07:04;98581.00;;;13.59;85.40
12799;BME280;19250;42.646;26.980;2023-03-25T06:09:33;98584.81;;;14.22;79.47
12799;BME280;19250;42.646;26.980;2023-03-25T06:12:00;98589.47;;;14.34;78.44
12799;BME280;19250;42.646;26.980;2023-03-25T06:14:28;98590.19;;;14.28;78.75
12799;BME280;19250;42.646;26.980;2023-03-25T06:16:55;98586.75;;;14.13;80.05
12799;BME280;19250;42.646;26.980;2023-03-25T06:19:23;98588.59;;;15.04;75.23
12799;BME280;19250;42.646;26.980;2023-03-25T06:21:51;98594.00;;;15.17;74.70
12799;BME280;19250;42.646;26.980;2023-03-25T06:24:19;98586.78;;;14.55;77.77
12799;BME280;19250;42.646;26.980;2023-03-25T06:26:46;98587.66;;;14.62;76.25
12799;BME280;19250;42.646;26.980;2023-03-25T06:29:13;98588.00;;;14.81;77.77
12799;BME280;19250;42.646;26.980;2023-03-25T06:31:40;98596.97;;;15.56;73.69
12799;BME280;19250;42.646;26.980;2023-03-25T06:34:07;98591.66;;;15.76;71.91
12799;BME280;19250;42.646;26.980;2023-03-25T06:36:36;98596.09;;;16.10;68.83
12799;BME280;19250;42.646;26.980;2023-03-25T06:39:02;98602.34;;;16.37;67.42
12799;BME280;19250;42.646;26.980;2023-03-25T06:41:30;98596.94;;;16.17;69.11
12799;BME280;19250;42.646;26.980;2023-03-25T06:44:00;98606.50;;;16.85;66.07
12799;BME280;19250;42.646;26.980;2023-03-25T06:46:27;98606.31;;;16.86;63.95
12799;BME280;19250;42.646;26.980;2023-03-25T06:48:54;98609.38;;;16.38;67.27
12799;BME280;19250;42.646;26.980;2023-03-25T06:51:21;98609.22;;;16.85;66.22
12799;BME280;19250;42.646;26.980;2023-03-25T06:53:49;98609.00;;;16.93;65.74
12799;BME280;19250;42.646;26.980;2023-03-25T06:56:16;98610.47;;;16.89;67.45
12799;BME280;19250;42.646;26.980;2023-03-25T06:58:43;98603.22;;;16.76;68.52
12799;BME280;19250;42.646;26.980;2023-03-25T07:01:10;98594.50;;;16.55;69.74
12799;BME280;19250;42.646;26.980;2023-03-25T07:03:37;98598.84;;;16.88;69.04
12799;BME280;19250;42.646;26.980;2023-03-25T07:06:04;98604.03;;;16.77;71.23
12799;BME280;19250;42.646;26.980;2023-03-25T07:08:31;98605.13;;;17.73;64.74
12799;BME280;19250;42.646;26.980;2023-03-25T07:11:03;98603.53;;;18.03;62.65
12799;BME280;19250;42.646;26.980;2023-03-25T07:13:31;98595.09;;;18.24;61.18
12799;BME280;19250;42.646;26.980;2023-03-25T07:15:58;98595.78;;;18.13;59.77
12799;BME280;19250;42.646;26.980;2023-03-25T07:18:25;98595.22;;;17.47;65.94
12799;BME280;19250;42.646;26.980;2023-03-25T07:20:52;98594.28;;;18.48;59.62
12799;BME280;19250;42.646;26.980;2023-03-25T07:23:19;98591.59;;;18.17;61.23
12799;BME280;19250;42.646;26.980;2023-03-25T07:25:46;98592.03;;;18.14;64.71
12799;BME280;19250;42.646;26.980;2023-03-25T07:28:15;98589.16;;;19.15;58.71
12799;BME280;19250;42.646;26.980;2023-03-25T07:30:41;98591.41;;;19.42;57.75
12799;BME280;19250;42.646;26.980;2023-03-25T07:33:09;98590.63;;;19.90;54.40
12799;BME280;19250;42.646;26.980;2023-03-25T07:35:36;98586.34;;;18.85;59.97
12799;BME280;19250;42.646;26.980;2023-03-25T07:38:03;98589.00;;;19.10;59.94
12799;BME280;19250;42.646;26.980;2023-03-25T07:40:30;98586.13;;;19.29;60.21
12799;BME280;19250;42.646;26.980;2023-03-25T07:42:56;98585.94;;;19.06;60.14
12799;BME280;19250;42.646;26.980;2023-03-25T07:45:25;98587.19;;;19.65;59.41
12799;BME280;19250;42.646;26.980;2023-03-25T07:47:52;98596.28;;;20.18;56.46
12799;BME280;19250;42.646;26.980;2023-03-25T07:50:19;98590.72;;;18.23;62.46
12799;BME280;19250;42.646;26.980;2023-03-25T07:52:47;98592.22;;;18.44;63.36
12799;BME280;19250;42.646;26.980;2023-03-25T07:55:14;98584.38;;;17.73;67.62
12799;BME280;19250;42.646;26.980;2023-03-25T07:57:42;98588.88;;;17.15;73.70
12799;BME280;19250;42.646;26.980;2023-03-25T08:00:10;98585.34;;;17.21;71.59
12799;BME280;19250;42.646;26.980;2023-03-25T08:02:38;98571.41;;;17.37;73.78
12799;BME280;19250;42.646;26.980;2023-03-25T08:05:06;98579.31;;;17.26;74.81
12799;BME280;19250;42.646;26.980;2023-03-25T08:07:33;98567.25;;;17.41;75.71
12799;BME280;19250;42.646;26.980;2023-03-25T08:10:00;98573.50;;;17.35;73.25
12799;BME280;19250;42.646;26.980;2023-03-25T08:12:26;98567.84;;;17.50;72.35
12799;BME280;19250;42.646;26.980;2023-03-25T08:14:53;98568.19;;;17.03;73.82
12799;BME280;19250;42.646;26.980;2023-03-25T08:17:20;98569.47;;;16.87;76.25
12799;BME280;19250;42.646;26.980;2023-03-25T08:19:48;98567.38;;;16.89;77.44
12799;BME280;19250;42.646;26.980;2023-03-25T08:22:15;98558.59;;;17.26;74.76
12799;BME280;19250;42.646;26.980;2023-03-25T08:24:42;98560.91;;;17.10;73.48
12799;BME280;19250;42.646;26.980;2023-03-25T08:27:09;98560.81;;;17.42;71.04
12799;BME280;19250;42.646;26.980;2023-03-25T08:29:36;98551.47;;;17.45;74.28
12799;BME280;19250;42.646;26.980;2023-03-25T08:32:03;98545.66;;;18.55;69.23
12799;BME280;19250;42.646;26.980;2023-03-25T08:34:30;98549.41;;;19.40;62.90
12799;BME280;19250;42.646;26.980;2023-03-25T08:37:05;98545.69;;;18.98;61.27
12799;BME280;19250;42.646;26.980;2023-03-25T08:39:32;98546.34;;;18.44;64.08
12799;BME280;19250;42.646;26.980;2023-03-25T08:42:04;98547.28;;;18.31;68.72
12799;BME280;19250;42.646;26.980;2023-03-25T08:44:31;98551.69;;;19.18;63.21
12799;BME280;19250;42.646;26.980;2023-03-25T08:46:58;98550.66;;;20.03;58.15
12799;BME280;19250;42.646;26.980;2023-03-25T08:49:25;98549.63;;;20.46;53.90
12799;BME280;19250;42.646;26.980;2023-03-25T08:51:52;98550.41;;;19.21;61.76
12799;BME280;19250;42.646;26.980;2023-03-25T08:54:20;98542.16;;;18.97;60.25
12799;BME280;19250;42.646;26.980;2023-03-25T08:56:47;98539.38;;;20.06;55.00
12799;BME280;19250;42.646;26.980;2023-03-25T08:59:14;98546.75;;;19.15;59.40
12799;BME280;19250;42.646;26.980;2023-03-25T09:01:41;98541.44;;;19.93;56.29
12799;BME280;19250;42.646;26.980;2023-03-25T09:04:09;98546.91;;;19.20;56.36
12799;BME280;19250;42.646;26.980;2023-03-25T09:06:36;98532.13;;;19.05;60.84
12799;BME280;19250;42.646;26.980;2023-03-25T09:09:03;98536.44;;;20.61;53.07
12799;BME280;19250;42.646;26.980;2023-03-25T09:11:32;98527.50;;;20.60;53.50
12799;BME280;19250;42.646;26.980;2023-03-25T09:13:59;98517.25;;;20.86;53.12
12799;BME280;19250;42.646;26.980;2023-03-25T09:16:28;98517.56;;;19.90;59.27
12799;BME280;19250;42.646;26.980;2023-03-25T09:18:55;98511.22;;;19.96;59.20
12799;BME280;19250;42.646;26.980;2023-03-25T09:21:21;98513.16;;;18.68;61.72
12799;BME280;19250;42.646;26.980;2023-03-25T09:23:48;98514.69;;;19.55;62.16
12799;BME280;19250;42.646;26.980;2023-03-25T09:26:15;98515.72;;;19.72;58.17
12799;BME280;19250;42.646;26.980;2023-03-25T09:28:43;98510.44;;;20.19;57.17
12799;BME280;19250;42.646;26.980;2023-03-25T09:31:12;98500.13;;;19.86;58.86
12799;BME280;19250;42.646;26.980;2023-03-25T09:33:39;98498.03;;;19.03;63.57
12799;BME280;19250;42.646;26.980;2023-03-25T09:36:06;98505.94;;;20.01;60.80
12799;BME280;19250;42.646;26.980;2023-03-25T09:38:33;98500.66;;;20.59;52.60
12799;BME280;19250;42.646;26.980;2023-03-25T09:41:00;98495.31;;;20.99;52.07
12799;BME280;19250;42.646;26.980;2023-03-25T09:43:32;98495.59;;;21.09;51.63
12799;BME280;19250;42.646;26.980;2023-03-25T09:46:01;98497.94;;;20.94;53.59
12799;BME280;19250;42.646;26.980;2023-03-25T09:48:31;98503.59;;;20.81;52.63
12799;BME280;19250;42.646;26.980;2023-03-25T09:51:02;98500.53;;;20.66;52.84
12799;BME280;19250;42.646;26.980;2023-03-25T09:53:30;98410.22;;;19.72;55.01
12799;BME280;19250;42.646;26.980;2023-03-25T09:56:01;98465.75;;;20.86;52.64
12799;BME280;19250;42.646;26.980;2023-03-25T09:58:39;98462.53;;;21.92;50.25
12799;BME280;19250;42.646;26.980;2023-03-25T10:01:20;98463.59;;;21.91;45.15
12799;BME280;19250;42.646;26.980;2023-03-25T10:03:54;98464.19;;;21.25;47.77
12799;BME280;19250;42.646;26.980;2023-03-25T10:06:23;98453.00;;;21.78;46.33
12799;BME280;19250;42.646;26.980;2023-03-25T10:08:58;98457.25;;;22.02;45.91
12799;BME280;19250;42.646;26.980;2023-03-25T10:11:28;98450.34;;;21.66;44.24
12799;BME280;19250;42.646;26.980;2023-03-25T10:13:59;98446.84;;;21.82;45.14
12799;BME280;19250;42.646;26.980;2023-03-25T10:16:34;98437.84;;;22.76;43.58
12799;BME280;19250;42.646;26.980;2023-03-25T10:19:08;98429.16;;;22.24;43.68
12799;BME280;19250;42.646;26.980;2023-03-25T10:21:42;98424.31;;;24.64;39.30
12799;BME280;19250;42.646;26.980;2023-03-25T10:24:16;98430.06;;;22.85;41.05
12799;BME280;19250;42.646;26.980;2023-03-25T10:26:44;98421.16;;;23.33;41.02
12799;BME280;19250;42.646;26.980;2023-03-25T10:29:13;98414.13;;;22.55;41.21
12799;BME280;19250;42.646;26.980;2023-03-25T10:31:45;98414.81;;;21.96;44.59
12799;BME280;19250;42.646;26.980;2023-03-25T10:34:15;98409.13;;;22.31;43.62
12799;BME280;19250;42.646;26.980;2023-03-25T10:36:44;98403.59;;;23.41;40.43
12799;BME280;19250;42.646;26.980;2023-03-25T10:39:14;98400.56;;;24.22;38.68
12799;BME280;19250;42.646;26.980;2023-03-25T10:41:43;98396.63;;;25.49;36.25
12799;BME280;19250;42.646;26.980;2023-03-25T10:44:12;98392.72;;;25.30;36.27
12799;BME280;19250;42.646;26.980;2023-03-25T10:46:40;98393.88;;;24.08;36.05
12799;BME280;19250;42.646;26.980;2023-03-25T10:49:14;98392.00;;;23.07;38.99
12799;BME280;19250;42.646;26.980;2023-03-25T10:51:42;98383.72;;;24.77;36.48
12799;BME280;19250;42.646;26.980;2023-03-25T10:54:10;98387.84;;;22.99;37.51
12799;BME280;19250;42.646;26.980;2023-03-25T10:56:38;98382.84;;;22.53;39.46
12799;BME280;19250;42.646;26.980;2023-03-25T10:59:11;98381.84;;;24.31;36.15
12799;BME280;19250;42.646;26.980;2023-03-25T11:01:40;98370.72;;;23.47;37.13
12799;BME280;19250;42.646;26.980;2023-03-25T11:04:08;98360.25;;;22.91;37.98
12799;BME280;19250;42.646;26.980;2023-03-25T11:06:39;98355.13;;;24.01;36.85
12799;BME280;19250;42.646;26.980;2023-03-25T11:09:14;98352.19;;;24.08;36.08
12799;BME280;19250;42.646;26.980;2023-03-25T11:11:42;98346.97;;;25.62;34.13
12799;BME280;19250;42.646;26.980;2023-03-25T11:14:10;98335.06;;;25.11;34.82
12799;BME280;19250;42.646;26.980;2023-03-25T11:16:39;98342.88;;;23.67;36.65
12799;BME280;19250;42.646;26.980;2023-03-25T11:19:12;98335.22;;;23.64;36.91
12799;BME280;19250;42.646;26.980;2023-03-25T11:21:44;98338.25;;;24.36;34.69
12799;BME280;19250;42.646;26.980;2023-03-25T11:24:12;98326.81;;;24.39;34.30
12799;BME280;19250;42.646;26.980;2023-03-25T11:26:40;98320.53;;;24.85;34.14
12799;BME280;19250;42.646;26.980;2023-03-25T11:29:08;98323.44;;;24.74;33.04
12799;BME280;19250;42.646;26.980;2023-03-25T11:31:38;98317.94;;;25.36;32.07
12799;BME280;19250;42.646;26.980;2023-03-25T11:34:14;98317.81;;;24.90;33.09
12799;BME280;19250;42.646;26.980;2023-03-25T11:36:48;98309.69;;;25.06;33.10
12799;BME280;19250;42.646;26.980;2023-03-25T11:39:24;98300.88;;;24.83;33.88
12799;BME280;19250;42.646;26.980;2023-03-25T11:41:52;98295.03;;;24.55;32.93
12799;BME280;19250;42.646;26.980;2023-03-25T11:44:20;98309.44;;;23.71;34.59
12799;BME280;19250;42.646;26.980;2023-03-25T11:46:48;98297.91;;;24.38;34.51
12799;BME280;19250;42.646;26.980;2023-03-25T11:49:17;98293.16;;;25.53;32.49
12799;BME280;19250;42.646;26.980;2023-03-25T11:51:46;98291.69;;;26.46;31.50
12799;BME280;19250;42.646;26.980;2023-03-25T11:54:14;98298.84;;;27.55;29.38
12799;BME280;19250;42.646;26.980;2023-03-25T11:56:43;98289.81;;;27.54;29.98
12799;BME280;19250;42.646;26.980;2023-03-25T11:59:16;98278.66;;;27.75;29.53
12799;BME280;19250;42.646;26.980;2023-03-25T12:01:44;98285.19;;;25.36;32.44
12799;BME280;19250;42.646;26.980;2023-03-25T12:04:13;98278.84;;;26.46;31.46
12799;BME280;19250;42.646;26.980;2023-03-25T12:09:30;98277.66;;;24.76;33.62
12799;BME280;19250;42.646;26.980;2023-03-25T12:12:08;98272.69;;;25.80;33.23
12799;BME280;19250;42.646;26.980;2023-03-25T12:14:41;98269.66;;;26.02;32.43
12799;BME280;19250;42.646;26.980;2023-03-25T12:17:13;98266.03;;;26.32;32.21
12799;BME280;19250;42.646;26.980;2023-03-25T12:19:44;98270.44;;;26.13;32.17
12799;BME280;19250;42.646;26.980;2023-03-25T12:22:21;98259.25;;;25.94;32.38
12799;BME280;19250;42.646;26.980;2023-03-25T12:25:03;98262.47;;;26.41;32.17
12799;BME280;19250;42.646;26.980;2023-03-25T12:27:36;98253.69;;;27.03;31.65
12799;BME280;19250;42.646;26.980;2023-03-25T12:30:11;98254.31;;;28.31;29.91
12799;BME280;19250;42.646;26.980;2023-03-25T12:32:44;98249.47;;;28.46;30.04
12799;BME280;19250;42.646;26.980;2023-03-25T12:35:25;98251.91;;;28.72;28.68
12799;BME280;19250;42.646;26.980;2023-03-25T12:37:59;98245.31;;;28.25;29.32
12799;BME280;19250;42.646;26.980;2023-03-25T12:40:35;98238.47;;;26.08;31.97
12799;BME280;19250;42.646;26.980;2023-03-25T12:43:09;98237.72;;;27.21;30.11
12799;BME280;19250;42.646;26.980;2023-03-25T12:45:42;98238.03;;;27.14;30.39
12799;BME280;19250;42.646;26.980;2023-03-25T12:48:14;98235.28;;;26.65;31.83
12799;BME280;19250;42.646;26.980;2023-03-25T12:50:48;98227.75;;;29.30;28.93
12799;BME280;19250;42.646;26.980;2023-03-25T12:53:22;98221.94;;;27.75;30.26
12799;BME280;19250;42.646;26.980;2023-03-25T12:55:56;98216.66;;;26.72;31.97
12799;BME280;19250;42.646;26.980;2023-03-25T12:58:33;98209.81;;;26.70;31.66
12799;BME280;19250;42.646;26.980;2023-03-25T13:01:07;98206.06;;;28.01;29.94
12799;BME280;19250;42.646;26.980;2023-03-25T13:03:50;98202.50;;;29.09;28.83
12799;BME280;19250;42.646;26.980;2023-03-25T13:06:23;98197.28;;;29.77;27.47
12799;BME280;19250;42.646;26.980;2023-03-25T13:08:55;98194.97;;;28.16;29.56
12799;BME280;19250;42.646;26.980;2023-03-25T13:11:27;98200.53;;;27.10;30.47